sensor_id;sensor_type;location;lat;lon;timestamp;P1;durP1;ratioP1;P2;durP2;ratioP2
71715;SDS011;59568;52.128;5.434;2023-04-24T00:01:23;1.75;;;0.52;;
71715;SDS011;59568;52.128;5.434;2023-04-24T00:03:50;1.73;;;0.60;;
71715;SDS011;59568;52.128;5.434;2023-04-24T00:06:17;4.32;;;0.88;;
71715;SDS011;59568;52.128;5.434;2023-04-24T00:08:44;3.33;;;0.60;;
71715;SDS011;59568;52.128;5.434;2023-04-24T00:11:11;1.38;;;0.50;;
71715;SDS011;59568;52.128;5.434;2023-04-24T00:13:38;2.20;;;0.60;;
71715;SDS011;59568;52.128;5.434;2023-04-24T00:16:05;2.20;;;0.80;;
71715;SDS011;59568;52.128;5.434;2023-04-24T00:18:32;2.22;;;0.85;;
71715;SDS011;59568;52.128;5.434;2023-04-24T00:20:59;1.58;;;0.90;;
71715;SDS011;59568;52.128;5.434;2023-04-24T00:23:26;1.98;;;0.93;;
71715;SDS011;59568;52.128;5.434;2023-04-24T00:25:53;1.50;;;1.00;;
71715;SDS011;59568;52.128;5.434;2023-04-24T00:28:20;1.63;;;0.90;;
71715;SDS011;59568;52.128;5.434;2023-04-24T00:30:47;1.30;;;0.85;;
71715;SDS011;59568;52.128;5.434;2023-04-24T00:33:14;2.15;;;1.00;;
71715;SDS011;59568;52.128;5.434;2023-04-24T00:35:41;1.65;;;0.95;;
71715;SDS011;59568;52.128;5.434;2023-04-24T00:38:08;2.47;;;1.48;;
71715;SDS011;59568;52.128;5.434;2023-04-24T00:40:35;1.67;;;1.00;;
71715;SDS011;59568;52.128;5.434;2023-04-24T00:43:02;2.13;;;1.25;;
71715;SDS011;59568;52.128;5.434;2023-04-24T00:45:29;2.92;;;1.15;;
71715;SDS011;59568;52.128;5.434;2023-04-24T00:47:57;1.75;;;1.05;;
71715;SDS011;59568;52.128;5.434;2023-04-24T00:50:24;2.30;;;1.20;;
71715;SDS011;59568;52.128;5.434;2023-04-24T00:52:52;4.87;;;1.50;;
71715;SDS011;59568;52.128;5.434;2023-04-24T00:55:19;2.05;;;1.60;;
71715;SDS011;59568;52.128;5.434;2023-04-24T00:57:47;3.33;;;1.50;;
71715;SDS011;59568;52.128;5.434;2023-04-24T01:00:15;2.88;;;1.65;;
71715;SDS011;59568;52.128;5.434;2023-04-24T01:02:45;2.90;;;1.90;;
71715;SDS011;59568;52.128;5.434;2023-04-24T01:05:14;5.00;;;2.00;;
71715;SDS011;59568;52.128;5.434;2023-04-24T01:07:44;3.40;;;1.90;;
71715;SDS011;59568;52.128;5.434;2023-04-24T01:10:12;2.85;;;1.98;;
71715;SDS011;59568;52.128;5.434;2023-04-24T01:12:40;3.45;;;1.73;;
71715;SDS011;59568;52.128;5.434;2023-04-24T01:15:07;3.53;;;2.17;;
71715;SDS011;59568;52.128;5.434;2023-04-24T01:17:35;2.43;;;1.77;;
71715;SDS011;59568;52.128;5.434;2023-04-24T01:20:02;2.58;;;1.90;;
71715;SDS011;59568;52.128;5.434;2023-04-24T01:22:33;4.35;;;2.35;;
71715;SDS011;59568;52.128;5.434;2023-04-24T01:25:01;3.67;;;2.33;;
71715;SDS011;59568;52.128;5.434;2023-04-24T01:27:29;2.90;;;2.28;;
71715;SDS011;59568;52.128;5.434;2023-04-24T01:29:56;3.83;;;2.13;;
71715;SDS011;59568;52.128;5.434;2023-04-24T01:32:23;4.22;;;2.35;;
71715;SDS011;59568;52.128;5.434;2023-04-24T01:34:51;4.13;;;2.53;;
71715;SDS011;59568;52.128;5.434;2023-04-24T01:37:18;4.45;;;2.50;;
71715;SDS011;59568;52.128;5.434;2023-04-24T01:39:45;9.23;;;2.85;;
71715;SDS011;59568;52.128;5.434;2023-04-24T01:42:12;4.40;;;2.63;;
71715;SDS011;59568;52.128;5.434;2023-04-24T01:44:39;5.10;;;3.13;;
71715;SDS011;59568;52.128;5.434;2023-04-24T01:47:07;6.47;;;2.83;;
71715;SDS011;59568;52.128;5.434;2023-04-24T01:49:34;4.18;;;2.95;;
71715;SDS011;59568;52.128;5.434;2023-04-24T01:52:01;6.90;;;2.42;;
71715;SDS011;59568;52.128;5.434;2023-04-24T01:54:28;7.37;;;2.83;;
71715;SDS011;59568;52.128;5.434;2023-04-24T01:56:55;5.55;;;3.28;;
71715;SDS011;59568;52.128;5.434;2023-04-24T01:59:22;5.97;;;2.88;;
71715;SDS011;59568;52.128;5.434;2023-04-24T02:01:51;4.05;;;2.92;;
71715;SDS011;59568;52.128;5.434;2023-04-24T02:04:18;4.35;;;2.95;;
71715;SDS011;59568;52.128;5.434;2023-04-24T02:06:45;4.43;;;2.60;;
71715;SDS011;59568;52.128;5.434;2023-04-24T02:09:12;4.43;;;2.45;;
71715;SDS011;59568;52.128;5.434;2023-04-24T02:11:39;4.70;;;2.65;;
71715;SDS011;59568;52.128;5.434;2023-04-24T02:14:06;5.53;;;2.40;;
71715;SDS011;59568;52.128;5.434;2023-04-24T02:16:33;4.30;;;2.42;;
71715;SDS011;59568;52.128;5.434;2023-04-24T02:19:00;4.43;;;2.37;;
71715;SDS011;59568;52.128;5.434;2023-04-24T02:21:27;5.20;;;2.15;;
71715;SDS011;59568;52.128;5.434;2023-04-24T02:23:54;4.53;;;2.45;;
71715;SDS011;59568;52.128;5.434;2023-04-24T02:26:21;4.22;;;2.03;;
71715;SDS011;59568;52.128;5.434;2023-04-24T02:28:48;4.82;;;2.38;;
71715;SDS011;59568;52.128;5.434;2023-04-24T02:31:15;4.97;;;2.67;;
71715;SDS011;59568;52.128;5.434;2023-04-24T02:33:41;4.82;;;2.33;;
71715;SDS011;59568;52.128;5.434;2023-04-24T02:36:08;4.68;;;2.13;;
71715;SDS011;59568;52.128;5.434;2023-04-24T02:38:35;3.42;;;1.92;;
71715;SDS011;59568;52.128;5.434;2023-04-24T02:41:02;4.55;;;2.08;;
71715;SDS011;59568;52.128;5.434;2023-04-24T02:43:32;3.67;;;1.87;;
71715;SDS011;59568;52.128;5.434;2023-04-24T02:46:00;5.20;;;2.33;;
71715;SDS011;59568;52.128;5.434;2023-04-24T02:48:27;4.15;;;2.42;;
71715;SDS011;59568;52.128;5.434;2023-04-24T02:50:54;3.90;;;2.40;;
71715;SDS011;59568;52.128;5.434;2023-04-24T02:53:21;4.07;;;2.63;;
71715;SDS011;59568;52.128;5.434;2023-04-24T02:55:47;4.67;;;2.47;;
71715;SDS011;59568;52.128;5.434;2023-04-24T02:58:14;4.05;;;2.25;;
71715;SDS011;59568;52.128;5.434;2023-04-24T03:00:42;5.40;;;2.75;;
71715;SDS011;59568;52.128;5.434;2023-04-24T03:03:09;5.07;;;3.13;;
71715;SDS011;59568;52.128;5.434;2023-04-24T03:05:36;4.20;;;2.55;;
71715;SDS011;59568;52.128;5.434;2023-04-24T03:08:03;3.57;;;2.20;;
71715;SDS011;59568;52.128;5.434;2023-04-24T03:10:31;5.30;;;2.53;;
71715;SDS011;59568;52.128;5.434;2023-04-24T03:12:58;4.30;;;2.40;;
71715;SDS011;59568;52.128;5.434;2023-04-24T03:15:25;5.22;;;2.50;;
71715;SDS011;59568;52.128;5.434;2023-04-24T03:17:53;5.03;;;2.55;;
71715;SDS011;59568;52.128;5.434;2023-04-24T03:20:22;4.17;;;2.50;;
71715;SDS011;59568;52.128;5.434;2023-04-24T03:22:49;4.68;;;2.28;;
71715;SDS011;59568;52.128;5.434;2023-04-24T03:25:16;5.28;;;2.53;;
71715;SDS011;59568;52.128;5.434;2023-04-24T03:27:43;3.80;;;2.40;;
71715;SDS011;59568;52.128;5.434;2023-04-24T03:30:09;5.22;;;2.50;;
71715;SDS011;59568;52.128;5.434;2023-04-24T03:32:36;6.87;;;2.17;;
71715;SDS011;59568;52.128;5.434;2023-04-24T03:35:06;4.75;;;2.10;;
71715;SDS011;59568;52.128;5.434;2023-04-24T03:37:34;4.32;;;2.15;;
71715;SDS011;59568;52.128;5.434;2023-04-24T03:40:01;4.68;;;1.95;;
71715;SDS011;59568;52.128;5.434;2023-04-24T03:42:29;3.53;;;1.98;;
71715;SDS011;59568;52.128;5.434;2023-04-24T03:44:55;4.20;;;2.23;;
71715;SDS011;59568;52.128;5.434;2023-04-24T03:47:22;4.10;;;1.98;;
71715;SDS011;59568;52.128;5.434;2023-04-24T03:49:49;3.92;;;2.20;;
71715;SDS011;59568;52.128;5.434;2023-04-24T03:52:16;6.20;;;2.30;;
71715;SDS011;59568;52.128;5.434;2023-04-24T03:54:43;4.45;;;2.67;;
71715;SDS011;59568;52.128;5.434;2023-04-24T03:57:09;4.40;;;2.20;;
71715;SDS011;59568;52.128;5.434;2023-04-24T03:59:36;6.75;;;2.63;;
71715;SDS011;59568;52.128;5.434;2023-04-24T04:02:03;5.03;;;2.47;;
71715;SDS011;59568;52.128;5.434;2023-04-24T04:04:30;4.25;;;2.33;;
71715;SDS011;59568;52.128;5.434;2023-04-24T04:06:57;5.38;;;2.45;;
71715;SDS011;59568;52.128;5.434;2023-04-24T04:09:27;4.00;;;2.50;;
71715;SDS011;59568;52.128;5.434;2023-04-24T04:11:54;4.60;;;2.13;;
71715;SDS011;59568;52.128;5.434;2023-04-24T04:14:21;5.00;;;2.15;;
71715;SDS011;59568;52.128;5.434;2023-04-24T04:16:49;4.93;;;2.20;;
71715;SDS011;59568;52.128;5.434;2023-04-24T04:19:19;4.60;;;2.00;;
71715;SDS011;59568;52.128;5.434;2023-04-24T04:21:46;4.13;;;2.17;;
71715;SDS011;59568;52.128;5.434;2023-04-24T04:24:19;4.78;;;2.03;;
71715;SDS011;59568;52.128;5.434;2023-04-24T04:26:47;4.38;;;2.47;;
71715;SDS011;59568;52.128;5.434;2023-04-24T04:29:14;4.43;;;1.95;;
71715;SDS011;59568;52.128;5.434;2023-04-24T04:31:44;5.28;;;2.17;;
71715;SDS011;59568;52.128;5.434;2023-04-24T04:34:11;4.77;;;2.33;;
71715;SDS011;59568;52.128;5.434;2023-04-24T04:36:39;5.68;;;2.60;;
71715;SDS011;59568;52.128;5.434;2023-04-24T04:39:06;4.88;;;1.98;;
71715;SDS011;59568;52.128;5.434;2023-04-24T04:41:34;4.85;;;2.55;;
71715;SDS011;59568;52.128;5.434;2023-04-24T04:44:06;5.35;;;2.92;;
71715;SDS011;59568;52.128;5.434;2023-04-24T04:46:35;6.17;;;2.97;;
71715;SDS011;59568;52.128;5.434;2023-04-24T04:49:03;4.28;;;2.50;;
71715;SDS011;59568;52.128;5.434;2023-04-24T04:51:30;5.68;;;2.75;;
71715;SDS011;59568;52.128;5.434;2023-04-24T04:53:58;5.10;;;2.90;;
71715;SDS011;59568;52.128;5.434;2023-04-24T04:56:25;6.85;;;3.00;;
71715;SDS011;59568;52.128;5.434;2023-04-24T04:58:52;5.30;;;2.70;;
71715;SDS011;59568;52.128;5.434;2023-04-24T05:01:19;6.50;;;2.53;;
71715;SDS011;59568;52.128;5.434;2023-04-24T05:03:46;5.18;;;2.30;;
71715;SDS011;59568;52.128;5.434;2023-04-24T05:06:13;6.00;;;2.47;;
71715;SDS011;59568;52.128;5.434;2023-04-24T05:08:40;6.18;;;2.78;;
71715;SDS011;59568;52.128;5.434;2023-04-24T05:11:07;5.73;;;2.23;;
71715;SDS011;59568;52.128;5.434;2023-04-24T05:13:34;4.63;;;2.25;;
71715;SDS011;59568;52.128;5.434;2023-04-24T05:16:06;7.22;;;2.75;;
71715;SDS011;59568;52.128;5.434;2023-04-24T05:18:33;9.75;;;2.92;;
71715;SDS011;59568;52.128;5.434;2023-04-24T05:21:00;6.15;;;3.05;;
71715;SDS011;59568;52.128;5.434;2023-04-24T05:23:27;5.60;;;2.73;;
71715;SDS011;59568;52.128;5.434;2023-04-24T05:25:54;5.47;;;2.72;;
71715;SDS011;59568;52.128;5.434;2023-04-24T05:28:21;7.13;;;3.05;;
71715;SDS011;59568;52.128;5.434;2023-04-24T05:30:48;7.13;;;2.92;;
71715;SDS011;59568;52.128;5.434;2023-04-24T05:33:16;5.88;;;2.42;;
71715;SDS011;59568;52.128;5.434;2023-04-24T05:35:43;6.17;;;2.60;;
71715;SDS011;59568;52.128;5.434;2023-04-24T05:38:13;5.10;;;1.65;;
71715;SDS011;59568;52.128;5.434;2023-04-24T05:40:43;4.80;;;1.98;;
71715;SDS011;59568;52.128;5.434;2023-04-24T05:43:10;3.47;;;1.55;;
71715;SDS011;59568;52.128;5.434;2023-04-24T05:45:37;4.43;;;1.70;;
71715;SDS011;59568;52.128;5.434;2023-04-24T05:48:05;5.73;;;1.97;;
71715;SDS011;59568;52.128;5.434;2023-04-24T05:50:32;4.00;;;1.83;;
71715;SDS011;59568;52.128;5.434;2023-04-24T05:53:02;3.83;;;1.75;;
71715;SDS011;59568;52.128;5.434;2023-04-24T05:55:32;5.80;;;1.88;;
71715;SDS011;59568;52.128;5.434;2023-04-24T05:57:59;5.03;;;2.20;;
71715;SDS011;59568;52.128;5.434;2023-04-24T06:00:27;4.33;;;1.37;;
71715;SDS011;59568;52.128;5.434;2023-04-24T06:02:55;5.65;;;1.75;;
71715;SDS011;59568;52.128;5.434;2023-04-24T06:05:22;3.05;;;1.35;;
71715;SDS011;59568;52.128;5.434;2023-04-24T06:07:49;3.88;;;1.50;;
71715;SDS011;59568;52.128;5.434;2023-04-24T06:10:16;3.47;;;1.67;;
71715;SDS011;59568;52.128;5.434;2023-04-24T06:12:43;3.93;;;1.63;;
71715;SDS011;59568;52.128;5.434;2023-04-24T06:15:10;3.42;;;1.50;;
71715;SDS011;59568;52.128;5.434;2023-04-24T06:17:38;4.38;;;1.48;;
71715;SDS011;59568;52.128;5.434;2023-04-24T06:20:05;3.75;;;1.25;;
71715;SDS011;59568;52.128;5.434;2023-04-24T06:22:34;4.53;;;1.15;;
71715;SDS011;59568;52.128;5.434;2023-04-24T06:25:01;4.47;;;0.70;;
71715;SDS011;59568;52.128;5.434;2023-04-24T06:27:29;1.63;;;0.43;;
71715;SDS011;59568;52.128;5.434;2023-04-24T06:29:56;1.00;;;0.40;;
71715;SDS011;59568;52.128;5.434;2023-04-24T06:32:23;2.63;;;0.47;;
71715;SDS011;59568;52.128;5.434;2023-04-24T06:34:51;5.07;;;0.50;;
71715;SDS011;59568;52.128;5.434;2023-04-24T06:37:22;1.80;;;0.30;;
71715;SDS011;59568;52.128;5.434;2023-04-24T06:39:49;1.10;;;0.30;;
71715;SDS011;59568;52.128;5.434;2023-04-24T06:42:16;1.88;;;0.52;;
71715;SDS011;59568;52.128;5.434;2023-04-24T06:44:43;1.70;;;0.45;;
71715;SDS011;59568;52.128;5.434;2023-04-24T06:47:10;3.03;;;0.93;;
71715;SDS011;59568;52.128;5.434;2023-04-24T06:49:40;6.53;;;2.33;;
71715;SDS011;59568;52.128;5.434;2023-04-24T06:52:07;5.85;;;1.92;;
71715;SDS011;59568;52.128;5.434;2023-04-24T06:54:34;6.35;;;2.90;;
71715;SDS011;59568;52.128;5.434;2023-04-24T06:57:01;6.05;;;3.17;;
71715;SDS011;59568;52.128;5.434;2023-04-24T06:59:29;9.35;;;4.15;;
71715;SDS011;59568;52.128;5.434;2023-04-24T07:01:57;9.33;;;4.17;;
71715;SDS011;59568;52.128;5.434;2023-04-24T07:04:24;9.30;;;4.43;;
71715;SDS011;59568;52.128;5.434;2023-04-24T07:06:52;14.02;;;4.60;;
71715;SDS011;59568;52.128;5.434;2023-04-24T07:09:22;12.18;;;5.13;;
71715;SDS011;59568;52.128;5.434;2023-04-24T07:11:50;11.05;;;5.57;;
71715;SDS011;59568;52.128;5.434;2023-04-24T07:14:18;14.37;;;4.77;;
71715;SDS011;59568;52.128;5.434;2023-04-24T07:16:45;12.55;;;4.80;;
71715;SDS011;59568;52.128;5.434;2023-04-24T07:19:12;9.63;;;5.03;;
71715;SDS011;59568;52.128;5.434;2023-04-24T07:21:40;13.43;;;5.35;;
71715;SDS011;59568;52.128;5.434;2023-04-24T07:24:07;10.85;;;5.72;;
71715;SDS011;59568;52.128;5.434;2023-04-24T07:26:37;11.57;;;5.07;;
71715;SDS011;59568;52.128;5.434;2023-04-24T07:29:06;11.63;;;4.85;;
71715;SDS011;59568;52.128;5.434;2023-04-24T07:31:34;9.70;;;5.57;;
71715;SDS011;59568;52.128;5.434;2023-04-24T07:34:01;10.55;;;5.18;;
71715;SDS011;59568;52.128;5.434;2023-04-24T07:36:28;11.82;;;4.95;;
71715;SDS011;59568;52.128;5.434;2023-04-24T07:38:55;10.47;;;4.87;;
71715;SDS011;59568;52.128;5.434;2023-04-24T07:41:23;13.13;;;5.53;;
71715;SDS011;59568;52.128;5.434;2023-04-24T07:43:51;13.82;;;5.50;;
71715;SDS011;59568;52.128;5.434;2023-04-24T07:46:20;13.20;;;5.47;;
71715;SDS011;59568;52.128;5.434;2023-04-24T07:48:47;11.68;;;5.25;;
71715;SDS011;59568;52.128;5.434;2023-04-24T07:51:27;12.73;;;5.07;;
71715;SDS011;59568;52.128;5.434;2023-04-24T07:53:54;13.02;;;4.72;;
71715;SDS011;59568;52.128;5.434;2023-04-24T07:56:21;15.38;;;5.40;;
71715;SDS011;59568;52.128;5.434;2023-04-24T07:58:48;10.07;;;4.60;;
71715;SDS011;59568;52.128;5.434;2023-04-24T08:01:15;11.13;;;4.90;;
71715;SDS011;59568;52.128;5.434;2023-04-24T08:03:42;12.40;;;4.50;;
71715;SDS011;59568;52.128;5.434;2023-04-24T08:06:09;11.80;;;4.63;;
71715;SDS011;59568;52.128;5.434;2023-04-24T08:08:37;15.30;;;5.57;;
71715;SDS011;59568;52.128;5.434;2023-04-24T08:11:04;11.82;;;4.82;;
71715;SDS011;59568;52.128;5.434;2023-04-24T08:13:31;14.80;;;5.50;;
71715;SDS011;59568;52.128;5.434;2023-04-24T08:15:58;12.37;;;4.90;;
71715;SDS011;59568;52.128;5.434;2023-04-24T08:18:24;9.07;;;4.00;;
71715;SDS011;59568;52.128;5.434;2023-04-24T08:20:51;9.20;;;4.00;;
71715;SDS011;59568;52.128;5.434;2023-04-24T08:23:18;9.63;;;3.80;;
71715;SDS011;59568;52.128;5.434;2023-04-24T08:25:45;9.45;;;4.18;;
71715;SDS011;59568;52.128;5.434;2023-04-24T08:28:12;8.90;;;3.27;;
71715;SDS011;59568;52.128;5.434;2023-04-24T08:30:42;9.95;;;2.90;;
71715;SDS011;59568;52.128;5.434;2023-04-24T08:33:09;9.15;;;3.05;;
71715;SDS011;59568;52.128;5.434;2023-04-24T08:35:36;14.30;;;2.47;;
71715;SDS011;59568;52.128;5.434;2023-04-24T08:38:03;10.60;;;2.42;;
71715;SDS011;59568;52.128;5.434;2023-04-24T08:40:30;9.40;;;2.60;;
71715;SDS011;59568;52.128;5.434;2023-04-24T08:43:01;9.77;;;2.25;;
71715;SDS011;59568;52.128;5.434;2023-04-24T08:45:29;8.55;;;2.72;;
71715;SDS011;59568;52.128;5.434;2023-04-24T08:47:57;12.93;;;2.50;;
71715;SDS011;59568;52.128;5.434;2023-04-24T08:50:26;10.13;;;1.92;;
71715;SDS011;59568;52.128;5.434;2023-04-24T08:52:53;15.57;;;2.40;;
71715;SDS011;59568;52.128;5.434;2023-04-24T08:55:20;9.15;;;1.90;;
71715;SDS011;59568;52.128;5.434;2023-04-24T08:57:51;12.07;;;2.17;;
71715;SDS011;59568;52.128;5.434;2023-04-24T09:00:22;7.80;;;1.73;;
71715;SDS011;59568;52.128;5.434;2023-04-24T09:02:49;8.95;;;2.00;;
71715;SDS011;59568;52.128;5.434;2023-04-24T09:05:17;8.50;;;1.50;;
71715;SDS011;59568;52.128;5.434;2023-04-24T09:07:53;9.88;;;1.95;;
71715;SDS011;59568;52.128;5.434;2023-04-24T09:10:24;11.25;;;1.30;;
71715;SDS011;59568;52.128;5.434;2023-04-24T09:12:52;10.20;;;1.30;;
71715;SDS011;59568;52.128;5.434;2023-04-24T09:15:21;7.90;;;1.40;;
71715;SDS011;59568;52.128;5.434;2023-04-24T09:17:48;8.00;;;1.20;;
71715;SDS011;59568;52.128;5.434;2023-04-24T09:20:16;7.70;;;1.35;;
71715;SDS011;59568;52.128;5.434;2023-04-24T09:22:43;10.32;;;1.60;;
71715;SDS011;59568;52.128;5.434;2023-04-24T09:25:11;8.07;;;0.93;;
71715;SDS011;59568;52.128;5.434;2023-04-24T09:27:42;8.38;;;1.55;;
71715;SDS011;59568;52.128;5.434;2023-04-24T09:30:11;9.10;;;1.70;;
71715;SDS011;59568;52.128;5.434;2023-04-24T09:32:38;11.98;;;1.88;;
71715;SDS011;59568;52.128;5.434;2023-04-24T09:35:13;8.00;;;1.50;;
71715;SDS011;59568;52.128;5.434;2023-04-24T09:37:43;8.35;;;1.35;;
71715;SDS011;59568;52.128;5.434;2023-04-24T09:40:15;9.18;;;1.35;;
71715;SDS011;59568;52.128;5.434;2023-04-24T09:42:51;9.33;;;1.57;;
71715;SDS011;59568;52.128;5.434;2023-04-24T09:45:20;6.28;;;1.67;;
71715;SDS011;59568;52.128;5.434;2023-04-24T09:47:47;7.03;;;2.00;;
71715;SDS011;59568;52.128;5.434;2023-04-24T09:50:19;8.70;;;1.35;;
71715;SDS011;59568;52.128;5.434;2023-04-24T09:52:55;6.70;;;1.30;;
71715;SDS011;59568;52.128;5.434;2023-04-24T09:55:24;6.83;;;1.00;;
71715;SDS011;59568;52.128;5.434;2023-04-24T09:57:53;5.13;;;1.10;;
71715;SDS011;59568;52.128;5.434;2023-04-24T10:00:24;6.95;;;0.98;;
71715;SDS011;59568;52.128;5.434;2023-04-24T10:02:54;4.65;;;0.85;;
71715;SDS011;59568;52.128;5.434;2023-04-24T10:05:23;6.93;;;1.08;;
71715;SDS011;59568;52.128;5.434;2023-04-24T10:07:51;4.60;;;1.13;;
71715;SDS011;59568;52.128;5.434;2023-04-24T10:10:18;4.50;;;0.82;;
71715;SDS011;59568;52.128;5.434;2023-04-24T10:12:45;6.82;;;1.10;;
71715;SDS011;59568;52.128;5.434;2023-04-24T10:15:13;6.60;;;1.30;;
71715;SDS011;59568;52.128;5.434;2023-04-24T10:17:41;3.97;;;0.90;;
71715;SDS011;59568;52.128;5.434;2023-04-24T10:20:11;6.57;;;1.33;;
71715;SDS011;59568;52.128;5.434;2023-04-24T10:22:38;5.70;;;1.00;;
71715;SDS011;59568;52.128;5.434;2023-04-24T10:25:06;7.95;;;1.00;;
71715;SDS011;59568;52.128;5.434;2023-04-24T10:27:35;5.70;;;0.90;;
71715;SDS011;59568;52.128;5.434;2023-04-24T10:30:04;6.47;;;0.82;;
71715;SDS011;59568;52.128;5.434;2023-04-24T10:32:32;4.47;;;0.80;;
71715;SDS011;59568;52.128;5.434;2023-04-24T10:34:59;2.60;;;0.80;;
71715;SDS011;59568;52.128;5.434;2023-04-24T10:37:26;5.03;;;1.15;;
71715;SDS011;59568;52.128;5.434;2023-04-24T10:39:54;2.03;;;0.60;;
71715;SDS011;59568;52.128;5.434;2023-04-24T10:42:22;4.20;;;0.60;;
71715;SDS011;59568;52.128;5.434;2023-04-24T10:44:49;4.00;;;0.40;;
71715;SDS011;59568;52.128;5.434;2023-04-24T10:47:16;2.08;;;0.50;;
71715;SDS011;59568;52.128;5.434;2023-04-24T10:49:43;1.60;;;0.50;;
71715;SDS011;59568;52.128;5.434;2023-04-24T10:52:11;2.10;;;0.30;;
71715;SDS011;59568;52.128;5.434;2023-04-24T10:59:50;3.25;;;0.40;;
71715;SDS011;59568;52.128;5.434;2023-04-24T11:02:38;2.83;;;0.30;;
71715;SDS011;59568;52.128;5.434;2023-04-24T11:05:10;3.38;;;0.30;;
71715;SDS011;59568;52.128;5.434;2023-04-24T11:10:43;4.77;;;0.40;;
71715;SDS011;59568;52.128;5.434;2023-04-24T11:13:24;1.65;;;0.40;;
71715;SDS011;59568;52.128;5.434;2023-04-24T11:18:39;2.92;;;0.40;;
71715;SDS011;59568;52.128;5.434;2023-04-24T11:21:12;7.30;;;0.50;;
71715;SDS011;59568;52.128;5.434;2023-04-24T11:23:39;3.77;;;0.43;;
71715;SDS011;59568;52.128;5.434;2023-04-24T11:26:17;5.82;;;0.70;;
71715;SDS011;59568;52.128;5.434;2023-04-24T11:28:49;3.35;;;0.32;;
71715;SDS011;59568;52.128;5.434;2023-04-24T11:31:35;2.85;;;0.40;;
71715;SDS011;59568;52.128;5.434;2023-04-24T11:34:10;5.38;;;0.50;;
71715;SDS011;59568;52.128;5.434;2023-04-24T11:36:42;4.60;;;0.50;;
71715;SDS011;59568;52.128;5.434;2023-04-24T11:39:10;4.72;;;0.50;;
71715;SDS011;59568;52.128;5.434;2023-04-24T11:41:37;4.30;;;0.57;;
71715;SDS011;59568;52.128;5.434;2023-04-24T11:44:06;3.85;;;0.30;;
71715;SDS011;59568;52.128;5.434;2023-04-24T11:46:34;1.90;;;0.50;;
71715;SDS011;59568;52.128;5.434;2023-04-24T11:49:02;1.63;;;0.37;;
71715;SDS011;59568;52.128;5.434;2023-04-24T11:51:28;4.50;;;0.40;;
71715;SDS011;59568;52.128;5.434;2023-04-24T11:54:09;3.00;;;0.38;;
71715;SDS011;59568;52.128;5.434;2023-04-24T11:56:36;0.75;;;0.20;;
71715;SDS011;59568;52.128;5.434;2023-04-24T11:59:04;0.95;;;0.20;;
71715;SDS011;59568;52.128;5.434;2023-04-24T12:01:42;1.27;;;0.50;;
71715;SDS011;59568;52.128;5.434;2023-04-24T12:04:09;0.65;;;0.20;;
71715;SDS011;59568;52.128;5.434;2023-04-24T12:06:37;1.20;;;0.20;;
71715;SDS011;59568;52.128;5.434;2023-04-24T12:09:04;2.10;;;0.30;;
71715;SDS011;59568;52.128;5.434;2023-04-24T12:11:53;0.85;;;0.28;;
71715;SDS011;59568;52.128;5.434;2023-04-24T12:14:23;3.63;;;0.60;;
71715;SDS011;59568;52.128;5.434;2023-04-24T12:16:50;1.67;;;0.28;;
71715;SDS011;59568;52.128;5.434;2023-04-24T12:19:21;1.88;;;0.30;;
71715;SDS011;59568;52.128;5.434;2023-04-24T12:21:58;3.55;;;0.30;;
71715;SDS011;59568;52.128;5.434;2023-04-24T12:24:30;0.82;;;0.30;;
71715;SDS011;59568;52.128;5.434;2023-04-24T12:26:57;2.77;;;0.20;;
71715;SDS011;59568;52.128;5.434;2023-04-24T12:29:24;5.63;;;0.30;;
71715;SDS011;59568;52.128;5.434;2023-04-24T12:31:51;2.28;;;0.30;;
71715;SDS011;59568;52.128;5.434;2023-04-24T12:34:19;2.00;;;0.50;;
71715;SDS011;59568;52.128;5.434;2023-04-24T12:36:47;2.67;;;0.60;;
71715;SDS011;59568;52.128;5.434;2023-04-24T12:39:18;3.23;;;0.40;;
71715;SDS011;59568;52.128;5.434;2023-04-24T12:41:55;5.70;;;0.60;;
71715;SDS011;59568;52.128;5.434;2023-04-24T12:44:57;4.57;;;0.52;;
71715;SDS011;59568;52.128;5.434;2023-04-24T12:47:16;3.67;;;0.65;;
71715;SDS011;59568;52.128;5.434;2023-04-24T12:49:43;3.70;;;0.40;;
71715;SDS011;59568;52.128;5.434;2023-04-24T12:52:10;6.83;;;0.70;;
71715;SDS011;59568;52.128;5.434;2023-04-24T12:54:37;6.70;;;0.60;;
71715;SDS011;59568;52.128;5.434;2023-04-24T12:57:04;2.85;;;0.60;;
71715;SDS011;59568;52.128;5.434;2023-04-24T12:59:31;3.92;;;0.40;;
71715;SDS011;59568;52.128;5.434;2023-04-24T13:01:57;4.15;;;0.60;;
71715;SDS011;59568;52.128;5.434;2023-04-24T13:04:24;2.50;;;0.40;;
71715;SDS011;59568;52.128;5.434;2023-04-24T13:06:51;5.47;;;0.85;;
71715;SDS011;59568;52.128;5.434;2023-04-24T13:09:18;7.20;;;1.13;;
71715;SDS011;59568;52.128;5.434;2023-04-24T13:11:45;5.38;;;0.60;;
71715;SDS011;59568;52.128;5.434;2023-04-24T13:14:12;6.63;;;1.35;;
71715;SDS011;59568;52.128;5.434;2023-04-24T13:16:39;5.87;;;1.50;;
71715;SDS011;59568;52.128;5.434;2023-04-24T13:19:06;6.63;;;0.80;;
71715;SDS011;59568;52.128;5.434;2023-04-24T13:21:33;4.60;;;0.90;;
71715;SDS011;59568;52.128;5.434;2023-04-24T13:24:00;4.85;;;1.05;;
71715;SDS011;59568;52.128;5.434;2023-04-24T13:26:27;7.72;;;1.00;;
71715;SDS011;59568;52.128;5.434;2023-04-24T13:28:54;7.63;;;0.80;;
71715;SDS011;59568;52.128;5.434;2023-04-24T13:31:21;8.80;;;1.50;;
71715;SDS011;59568;52.128;5.434;2023-04-24T13:33:48;8.52;;;1.33;;
71715;SDS011;59568;52.128;5.434;2023-04-24T13:36:15;6.95;;;1.08;;
71715;SDS011;59568;52.128;5.434;2023-04-24T13:38:44;6.78;;;1.00;;
71715;SDS011;59568;52.128;5.434;2023-04-24T13:41:10;9.60;;;1.00;;
71715;SDS011;59568;52.128;5.434;2023-04-24T13:43:39;10.07;;;1.30;;
71715;SDS011;59568;52.128;5.434;2023-04-24T13:46:08;8.25;;;0.90;;
71715;SDS011;59568;52.128;5.434;2023-04-24T13:48:35;11.85;;;1.13;;
71715;SDS011;59568;52.128;5.434;2023-04-24T13:51:02;7.30;;;1.23;;
71715;SDS011;59568;52.128;5.434;2023-04-24T13:53:29;7.47;;;1.13;;
71715;SDS011;59568;52.128;5.434;2023-04-24T13:55:56;6.38;;;1.17;;
71715;SDS011;59568;52.128;5.434;2023-04-24T13:58:23;8.32;;;1.05;;
71715;SDS011;59568;52.128;5.434;2023-04-24T14:00:50;5.00;;;1.25;;
71715;SDS011;59568;52.128;5.434;2023-04-24T14:03:17;4.47;;;0.95;;
71715;SDS011;59568;52.128;5.434;2023-04-24T14:05:44;9.13;;;1.20;;
71715;SDS011;59568;52.128;5.434;2023-04-24T14:08:11;5.47;;;0.90;;
71715;SDS011;59568;52.128;5.434;2023-04-24T14:10:38;4.00;;;0.80;;
71715;SDS011;59568;52.128;5.434;2023-04-24T14:13:05;7.30;;;1.20;;
71715;SDS011;59568;52.128;5.434;2023-04-24T14:15:32;4.53;;;1.10;;
71715;SDS011;59568;52.128;5.434;2023-04-24T14:17:59;4.20;;;0.90;;
71715;SDS011;59568;52.128;5.434;2023-04-24T14:20:28;3.95;;;0.90;;
71715;SDS011;59568;52.128;5.434;2023-04-24T14:22:55;4.15;;;0.93;;
71715;SDS011;59568;52.128;5.434;2023-04-24T14:25:25;5.00;;;0.88;;
71715;SDS011;59568;52.128;5.434;2023-04-24T14:27:52;5.82;;;1.30;;
71715;SDS011;59568;52.128;5.434;2023-04-24T14:30:19;9.60;;;1.63;;
71715;SDS011;59568;52.128;5.434;2023-04-24T14:32:46;7.57;;;1.25;;
71715;SDS011;59568;52.128;5.434;2023-04-24T14:35:14;4.20;;;1.20;;
71715;SDS011;59568;52.128;5.434;2023-04-24T14:37:41;8.77;;;1.20;;
71715;SDS011;59568;52.128;5.434;2023-04-24T14:40:09;4.93;;;0.88;;
71715;SDS011;59568;52.128;5.434;2023-04-24T14:42:54;11.23;;;1.70;;
71715;SDS011;59568;52.128;5.434;2023-04-24T14:45:26;4.72;;;1.13;;
71715;SDS011;59568;52.128;5.434;2023-04-24T14:47:54;7.90;;;1.77;;
71715;SDS011;59568;52.128;5.434;2023-04-24T14:50:21;6.85;;;1.60;;
71715;SDS011;59568;52.128;5.434;2023-04-24T14:52:50;7.43;;;1.50;;
71715;SDS011;59568;52.128;5.434;2023-04-24T14:55:17;7.53;;;1.70;;
71715;SDS011;59568;52.128;5.434;2023-04-24T14:57:44;5.75;;;1.15;;
71715;SDS011;59568;52.128;5.434;2023-04-24T15:00:11;7.45;;;1.35;;
71715;SDS011;59568;52.128;5.434;2023-04-24T15:02:38;6.40;;;1.45;;